Time;durP1;ratioP1;P1;durP2;ratioP2;P2;SDS_P1;SDS_P2;PMS_P1;PMS_P2;Temp;Humidity;BMP_temperature;BMP_pressure;BME280_temperature;BME280_humidity;BME280_pressure;Samples;Min_cycle;Max_cycle;Signal;HPM_P1;HPM_P2
2022/03/30 00:02:21;;;;;;;17.63;13.90;;;;;;;12.14;58.30;154477.28;5030210;28;20440;-76
2022/03/30 00:04:56;;;;;;;19.13;14.23;;;;;;;12.12;57.97;154473.41;5042601;28;20451;-76
2022/03/30 00:07:32;;;;;;;18.83;14.30;;;;;;;12.09;58.14;154465.63;5055619;28;20535;-76
2022/03/30 00:10:08;;;;;;;22.20;14.17;;;;;;;12.12;58.19;154472.13;5068976;28;20556;-76
2022/03/30 00:12:44;;;;;;;24.70;17.20;;;;;;;12.11;58.08;154470.81;5038861;28;20520;-76
2022/03/30 00:15:21;;;;;;;23.90;14.87;;;;;;;12.12;57.78;154472.13;5052673;28;20918;-76
2022/03/30 00:17:57;;;;;;;18.70;15.40;;;;;;;12.07;57.91;154460.41;5053680;28;20430;-76
2022/03/30 00:20:32;;;;;;;18.83;14.20;;;;;;;12.07;58.34;154459.16;5070102;28;20454;-76
2022/03/30 00:23:08;;;;;;;20.97;14.90;;;;;;;12.09;57.85;154464.31;5054364;28;20434;-76
2022/03/30 00:25:44;;;;;;;17.30;14.20;;;;;;;12.11;58.31;154469.50;5043538;28;20669;-76
2022/03/30 00:28:19;;;;;;;20.20;14.40;;;;;;;12.10;58.65;154468.19;5054621;28;20906;-76
2022/03/30 00:30:57;;;;;;;22.67;14.57;;;;;;;12.09;58.64;154465.63;5054035;28;20466;-76
2022/03/30 00:33:33;;;;;;;22.03;14.40;;;;;;;12.08;58.39;154461.72;5018468;28;20467;-76
2022/03/30 00:36:09;;;;;;;20.57;15.30;;;;;;;12.09;58.64;154465.63;5019200;28;20851;-76
2022/03/30 00:38:45;;;;;;;20.73;14.33;;;;;;;12.10;58.25;154468.19;5053014;28;20488;-76
2022/03/30 00:41:21;;;;;;;17.80;13.70;;;;;;;12.11;58.55;154470.81;5053701;28;20435;-76
2022/03/30 00:43:56;;;;;;;19.33;13.67;;;;;;;12.09;58.38;154465.63;5041568;28;20452;-76
2022/03/30 00:46:33;;;;;;;15.73;13.53;;;;;;;12.10;58.60;154466.88;5041927;28;20958;-76
2022/03/30 00:49:09;;;;;;;17.13;15.37;;;;;;;12.06;58.91;154457.84;5053311;28;20829;-76
2022/03/30 00:51:44;;;;;;;20.83;15.27;;;;;;;12.06;58.50;154457.84;5037985;28;20453;-76
2022/03/30 00:54:20;;;;;;;23.00;14.33;;;;;;;12.04;58.69;154452.69;5049383;28;20450;-76
2022/03/30 00:56:55;;;;;;;20.60;15.87;;;;;;;12.00;58.87;154442.28;5052779;28;20451;-76
2022/03/30 00:59:31;;;;;;;17.97;15.23;;;;;;;12.06;58.97;154456.53;5040448;28;20800;-76
2022/03/30 01:02:08;;;;;;;20.83;15.17;;;;;;;12.10;58.44;154466.88;5053420;28;20435;-76
2022/03/30 01:04:45;;;;;;;19.20;14.33;;;;;;;12.09;58.27;154465.63;5070165;28;20438;-76
2022/03/30 01:07:21;;;;;;;17.63;13.43;;;;;;;12.14;58.25;154478.59;5034357;28;20504;-76
2022/03/30 01:09:56;;;;;;;18.70;13.90;;;;;;;12.13;58.74;154474.66;5050534;28;20461;-76
2022/03/30 01:12:43;;;;;;;19.93;14.13;;;;;;;12.11;59.28;154470.81;5053284;28;20489;-77
2022/03/30 01:15:20;;;;;;;19.40;14.80;;;;;;;12.06;59.65;154457.84;5052257;28;20455;-76
2022/03/30 01:17:57;;;;;;;21.03;15.20;;;;;;;12.02;59.36;154447.44;5052904;28;20453;-76
2022/03/30 01:20:33;;;;;;;21.40;15.53;;;;;;;12.01;59.48;154444.91;5053388;28;20953;-77
2022/03/30 01:23:10;;;;;;;20.13;14.40;;;;;;;12.00;59.74;154442.28;5053412;28;20431;-76
2022/03/30 01:25:45;;;;;;;22.27;14.90;;;;;;;12.00;59.87;154442.28;5044593;28;20447;-76
2022/03/30 01:28:22;;;;;;;19.20;14.00;;;;;;;11.95;59.83;154428.00;5020574;28;20900;-76
2022/03/30 01:33:51;;;;;;;20.50;15.20;;;;;;;11.88;59.71;154409.88;5052971;28;20577;-76
2022/03/30 01:36:26;;;;;;;16.93;13.77;;;;;;;11.90;59.52;154416.38;5049546;28;20462;-76
2022/03/30 01:39:03;;;;;;;22.10;15.00;;;;;;;11.92;59.63;154421.53;5052879;28;20442;-76
2022/03/30 01:41:39;;;;;;;15.90;13.40;;;;;;;11.92;59.73;154421.53;5051685;28;20779;-76
2022/03/30 01:44:14;;;;;;;19.87;14.27;;;;;;;11.89;59.64;154413.75;5067977;28;20446;-77
2022/03/30 01:46:50;;;;;;;21.60;15.47;;;;;;;11.90;59.42;154416.38;5051654;28;20451;-76
2022/03/30 01:49:26;;;;;;;20.13;14.73;;;;;;;11.86;59.60;154405.97;5052321;28;20443;-76
2022/03/30 01:52:01;;;;;;;22.63;13.60;;;;;;;11.87;59.69;154408.56;5052692;28;20439;-77
2022/03/30 01:54:39;;;;;;;22.93;14.60;;;;;;;11.87;60.18;154408.56;5028877;28;20439;-76
2022/03/30 01:57:15;;;;;;;20.00;14.77;;;;;;;11.88;59.96;154411.19;5032347;28;20454;-76
2022/03/30 01:59:50;;;;;;;19.17;13.97;;;;;;;11.89;59.49;154412.44;5024471;28;20775;-76
2022/03/30 02:02:27;;;;;;;20.00;15.30;;;;;;;11.86;59.76;154405.97;5050891;28;20463;-76
2022/03/30 02:05:02;;;;;;;19.77;13.87;;;;;;;11.87;59.68;154407.28;5032280;28;21023;-76
2022/03/30 02:07:38;;;;;;;18.53;15.03;;;;;;;11.87;59.34;154408.56;5032341;28;20530;-76
2022/03/30 02:10:15;;;;;;;19.13;15.17;;;;;;;11.87;60.39;154407.28;5051598;28;20463;-76
2022/03/30 02:12:52;;;;;;;18.30;14.37;;;;;;;11.86;60.23;154405.97;5051524;28;20458;-77
2022/03/30 02:15:29;;;;;;;18.43;14.33;;;;;;;11.88;60.31;154411.19;5036358;28;20440;-76
2022/03/30 02:18:05;;;;;;;18.30;13.73;;;;;;;11.89;60.33;154412.44;5038861;28;20964;-77
2022/03/30 02:20:41;;;;;;;23.37;15.40;;;;;;;11.90;60.06;154415.06;5053021;28;20450;-77
2022/03/30 02:23:17;;;;;;;21.80;15.07;;;;;;;11.83;60.52;154398.22;5048738;28;20526;-76
2022/03/30 02:25:53;;;;;;;20.43;14.93;;;;;;;11.79;61.32;154386.53;5027055;28;20541;-76
2022/03/30 02:28:29;;;;;;;22.80;14.57;;;;;;;11.74;61.15;154374.88;5050147;28;20446;-76
2022/03/30 02:31:05;;;;;;;22.10;13.70;;;;;;;11.72;61.32;154369.72;5051359;28;20442;-76
2022/03/30 02:33:41;;;;;;;21.53;15.30;;;;;;;11.68;61.14;154359.28;5049884;28;20462;-76
2022/03/30 02:36:17;;;;;;;17.90;13.27;;;;;;;11.64;61.13;154348.94;5038658;28;20435;-76
2022/03/30 02:38:53;;;;;;;15.53;13.10;;;;;;;11.68;60.86;154357.97;5036609;28;20466;-76
2022/03/30 02:41:29;;;;;;;21.73;14.23;;;;;;;11.68;61.04;154359.28;5050564;28;20442;-77
2022/03/30 02:44:06;;;;;;;16.20;13.50;;;;;;;11.67;60.87;154356.72;5036091;28;20459;-76
2022/03/30 02:46:43;;;;;;;22.33;16.80;;;;;;;11.69;60.68;154361.94;5051222;28;20423;-77
2022/03/30 02:49:18;;;;;;;18.40;13.80;;;;;;;11.71;60.52;154367.09;5068413;28;20454;-76
2022/03/30 02:51:54;;;;;;;21.17;13.70;;;;;;;11.69;60.90;154360.63;5062939;28;20444;-76
2022/03/30 02:54:29;;;;;;;20.37;13.83;;;;;;;11.68;60.77;154359.28;5033933;28;20477;-76
2022/03/30 02:57:06;;;;;;;17.20;13.90;;;;;;;11.66;60.60;154354.09;5057585;28;20450;-76
2022/03/30 02:59:42;;;;;;;16.77;13.47;;;;;;;11.66;61.11;154354.09;5057496;28;20434;-76
2022/03/30 03:02:17;;;;;;;18.40;14.80;;;;;;;11.67;60.58;154356.72;5056012;28;20455;-76
2022/03/30 03:04:53;;;;;;;18.70;13.57;;;;;;;11.67;60.59;154356.72;5046149;28;20447;-76
2022/03/30 03:07:29;;;;;;;21.40;14.50;;;;;;;11.62;61.18;154343.75;5053997;28;20447;-75
2022/03/30 03:10:05;;;;;;;20.70;15.00;;;;;;;11.59;61.82;154335.97;5051545;28;20553;-75
2022/03/30 03:12:42;;;;;;;19.67;14.47;;;;;;;11.49;62.40;154310.06;5038188;28;20447;-76
2022/03/30 03:15:17;;;;;;;23.80;16.77;;;;;;;11.46;62.05;154303.53;5052547;28;20474;-78
2022/03/30 03:17:53;;;;;;;18.90;15.27;;;;;;;11.46;62.44;154303.53;5038402;28;20431;-77
2022/03/30 03:20:29;;;;;;;18.50;16.13;;;;;;;11.50;62.18;154312.63;5052228;28;20451;-77
2022/03/30 03:23:05;;;;;;;18.80;14.83;;;;;;;11.49;61.78;154311.31;5052249;28;20440;-77
2022/03/30 03:25:41;;;;;;;21.60;15.10;;;;;;;11.47;62.35;154306.16;5038701;28;20457;-77
2022/03/30 03:28:18;;;;;;;19.60;15.27;;;;;;;11.49;61.87;154311.31;5029637;28;20450;-77
2022/03/30 03:30:53;;;;;;;20.67;14.20;;;;;;;11.50;61.67;154312.63;5052568;28;20807;-77
2022/03/30 03:33:29;;;;;;;22.40;17.53;;;;;;;11.50;62.22;154313.94;5044445;28;20471;-77
2022/03/30 03:36:05;;;;;;;25.40;14.87;;;;;;;11.48;62.24;154308.75;5036395;28;20981;-77
2022/03/30 03:38:41;;;;;;;24.73;16.47;;;;;;;11.50;62.22;154312.63;5052263;28;20451;-77
2022/03/30 03:41:17;;;;;;;21.30;16.37;;;;;;;11.48;62.25;154308.75;5053933;28;20442;-77
2022/03/30 03:43:54;;;;;;;18.77;15.70;;;;;;;11.47;62.20;154304.84;5054059;28;20450;-77
2022/03/30 03:46:29;;;;;;;19.97;15.60;;;;;;;11.45;62.09;154300.97;5044388;28;20439;-77
2022/03/30 03:49:05;;;;;;;20.70;15.87;;;;;;;11.40;63.01;154288.03;5051452;28;20449;-75
2022/03/30 03:51:41;;;;;;;20.33;16.20;;;;;;;11.35;62.87;154273.78;5039368;28;20435;-77
2022/03/30 03:54:16;;;;;;;23.97;15.00;;;;;;;11.34;63.63;154271.16;5071209;28;20474;-75
2022/03/30 03:56:52;;;;;;;18.83;13.97;;;;;;;11.35;63.99;154273.78;5051332;28;20446;-77
2022/03/30 03:59:29;;;;;;;20.77;16.17;;;;;;;11.37;65.11;154278.94;5057395;28;20458;-77
2022/03/30 04:02:07;;;;;;;21.70;16.80;;;;;;;11.33;66.19;154269.84;5053893;28;20933;-77
2022/03/30 04:04:58;;;;;;;22.07;15.97;;;;;;;11.30;67.13;154262.13;5053961;28;20446;-77
2022/03/30 04:07:34;;;;;;;18.83;16.00;;;;;;;11.30;67.54;154262.13;5054318;28;20443;-77
2022/03/30 04:10:11;;;;;;;19.67;15.73;;;;;;;11.32;67.82;154266.00;5043998;28;20487;-77
2022/03/30 04:12:46;;;;;;;20.20;15.30;;;;;;;11.30;68.08;154262.13;5065287;28;20435;-77
2022/03/30 04:15:41;;;;;;;21.27;14.90;;;;;;;11.28;68.66;154255.66;5051132;28;20454;-77
2022/03/30 04:18:26;;;;;;;20.03;15.90;;;;;;;11.26;68.89;154250.44;5054428;28;20828;-77
2022/03/30 04:21:01;;;;;;;21.83;17.20;;;;;;;11.23;69.13;154242.66;5053886;28;20435;-77
2022/03/30 04:23:37;;;;;;;21.00;15.80;;;;;;;11.21;69.14;154238.78;5053496;28;20435;-77
2022/03/30 04:26:13;;;;;;;18.63;15.03;;;;;;;11.21;68.66;154237.47;5046723;28;20690;-77
2022/03/30 04:28:49;;;;;;;20.40;15.07;;;;;;;11.18;68.78;154229.72;5027596;28;20558;-77
2022/03/30 04:31:26;;;;;;;24.43;15.63;;;;;;;11.14;69.08;154219.38;5044228;28;20524;-77
2022/03/30 04:34:02;;;;;;;20.93;15.07;;;;;;;11.16;68.82;154225.84;5046430;28;20463;-77
2022/03/30 04:36:37;;;;;;;18.70;14.83;;;;;;;11.16;69.13;154225.84;5049714;28;20547;-77
2022/03/30 04:39:13;;;;;;;23.03;16.10;;;;;;;11.13;69.93;154216.75;5048935;28;20455;-77
2022/03/30 04:41:48;;;;;;;16.20;13.80;;;;;;;11.13;70.74;154218.06;5045804;28;20518;-77
2022/03/30 04:44:25;;;;;;;23.50;15.97;;;;;;;11.02;72.89;154190.84;5033638;28;20450;-77
2022/03/30 04:47:02;;;;;;;24.03;15.90;;;;;;;11.06;73.69;154198.63;5041682;28;20508;-77
2022/03/30 04:49:38;;;;;;;23.77;15.13;;;;;;;10.97;76.00;154176.59;5053496;28;20845;-77
2022/03/30 04:52:13;;;;;;;22.87;14.70;;;;;;;10.91;76.54;154161.06;5060957;28;20490;-77
2022/03/30 04:54:49;;;;;;;25.20;14.63;;;;;;;10.90;78.43;154159.78;5037998;28;20569;-77
2022/03/30 04:57:24;;;;;;;22.43;13.63;;;;;;;10.84;78.46;154144.25;5017936;28;20471;-77
2022/03/30 05:00:00;;;;;;;21.90;13.77;;;;;;;10.77;80.33;154126.13;5035175;28;20488;-77
2022/03/30 05:02:38;;;;;;;18.00;13.40;;;;;;;10.73;81.49;154115.75;5018080;28;20431;-77
2022/03/30 05:05:16;;;;;;;23.57;15.07;;;;;;;10.70;82.06;154107.97;5019680;28;20454;-76
2022/03/30 05:07:51;;;;;;;18.53;13.90;;;;;;;10.62;84.08;154087.25;5048576;28;20783;-77
2022/03/30 05:10:27;;;;;;;21.60;14.77;;;;;;;10.63;84.79;154089.84;5041747;28;20450;-76
2022/03/30 05:13:04;;;;;;;21.00;13.70;;;;;;;10.63;85.41;154089.84;5047979;28;20863;-76
2022/03/30 05:15:39;;;;;;;20.80;13.00;;;;;;;10.66;85.36;154096.31;5037265;28;20431;-76
2022/03/30 05:18:16;;;;;;;26.93;13.30;;;;;;;10.63;87.81;154088.56;5052826;28;20435;-76
2022/03/30 05:20:53;;;;;;;19.00;13.90;;;;;;;10.55;88.64;154069.13;5054017;28;20463;-76
2022/03/30 05:23:32;;;;;;;22.97;14.80;;;;;;;10.50;90.19;154054.88;5032300;28;20925;-76
2022/03/30 05:26:07;;;;;;;21.40;13.63;;;;;;;10.42;91.19;154035.47;5059237;28;20446;-76
2022/03/30 05:28:43;;;;;;;26.43;14.07;;;;;;;10.36;92.39;154021.22;5061767;28;20435;-76
2022/03/30 05:31:19;;;;;;;18.93;14.13;;;;;;;10.43;91.91;154038.09;5043815;28;20530;-78
2022/03/30 05:33:56;;;;;;;21.43;14.87;;;;;;;10.38;93.34;154025.09;5049888;28;20958;-77
2022/03/30 05:36:31;;;;;;;21.00;11.83;;;;;;;10.35;93.55;154018.63;5033501;28;20444;-77
2022/03/30 05:39:07;;;;;;;18.77;12.60;;;;;;;10.34;94.25;154014.75;5040440;28;20454;-77
2022/03/30 05:41:42;;;;;;;25.50;14.73;;;;;;;10.39;93.89;154027.69;5047265;28;20479;-77
2022/03/30 05:44:37;;;;;;;14.60;12.97;;;;;;;10.37;93.99;154023.84;5015692;28;20447;-77
2022/03/30 05:47:14;;;;;;;16.03;11.10;;;;;;;10.36;95.70;154021.22;5050642;28;20446;-77
2022/03/30 05:49:51;;;;;;;16.73;13.77;;;;;;;10.37;95.95;154023.84;5052193;28;20435;-76
2022/03/30 05:52:26;;;;;;;22.30;14.40;;;;;;;10.38;96.47;154025.09;5052847;28;20446;-76
2022/03/30 05:55:02;;;;;;;17.47;12.30;;;;;;;10.39;97.05;154027.69;5068631;28;20475;-77
2022/03/30 05:57:37;;;;;;;20.00;12.90;;;;;;;10.32;97.40;154010.91;5038306;28;20470;-77
2022/03/30 06:00:14;;;;;;;18.47;12.13;;;;;;;10.33;98.40;154012.16;5038183;28;20781;-76
2022/03/30 06:02:50;;;;;;;16.80;13.07;;;;;;;10.33;99.09;154012.16;5050268;28;20467;-77
2022/03/30 06:05:28;;;;;;;22.17;12.50;;;;;;;10.33;98.87;154013.47;5039654;28;20483;-76
2022/03/30 06:08:04;;;;;;;28.80;13.70;;;;;;;10.32;98.77;154010.91;5036225;28;20447;-76
2022/03/30 06:10:39;;;;;;;22.30;12.60;;;;;;;10.31;99.49;154007.00;5045314;28;20458;-77
2022/03/30 06:13:15;;;;;;;19.37;12.47;;;;;;;10.24;99.98;153990.19;5062931;28;20485;-76
2022/03/30 06:15:50;;;;;;;17.90;12.10;;;;;;;10.33;99.79;154013.47;5035874;28;20470;-76
2022/03/30 06:18:26;;;;;;;19.07;12.13;;;;;;;10.31;99.39;154008.28;5050038;28;20541;-77
2022/03/30 06:21:03;;;;;;;20.83;12.73;;;;;;;10.27;100.00;153996.66;5034665;28;20447;-77
2022/03/30 06:23:38;;;;;;;18.87;12.17;;;;;;;10.28;100.00;154000.50;5030939;28;20471;-77
2022/03/30 06:26:14;;;;;;;18.53;12.87;;;;;;;10.28;99.62;153999.22;5034936;28;20442;-77
2022/03/30 06:28:49;;;;;;;19.37;13.33;;;;;;;10.28;99.87;153999.22;5037307;28;20459;-77
2022/03/30 06:31:25;;;;;;;19.80;12.80;;;;;;;10.29;100.00;154003.13;5016269;28;20439;-77
2022/03/30 06:34:01;;;;;;;21.83;14.10;;;;;;;10.31;99.54;154007.00;5049948;28;20494;-77
2022/03/30 06:36:39;;;;;;;24.13;13.57;;;;;;;10.31;98.14;154008.28;5034640;28;20500;-77
2022/03/30 06:39:14;;;;;;;19.50;12.10;;;;;;;10.26;98.73;153994.03;5048650;28;20529;-77
2022/03/30 06:41:50;;;;;;;20.60;13.07;;;;;;;10.24;100.00;153988.88;5051791;28;20449;-77
2022/03/30 06:44:26;;;;;;;21.10;12.97;;;;;;;10.22;100.00;153983.66;5051599;28;20481;-76
2022/03/30 06:47:01;;;;;;;20.33;13.73;;;;;;;10.23;100.00;153986.28;5050214;28;20450;-76
2022/03/30 06:49:37;;;;;;;20.90;13.80;;;;;;;10.18;100.00;153973.34;5047998;28;20434;-77
2022/03/30 06:52:14;;;;;;;18.10;14.00;;;;;;;10.17;100.00;153972.03;5031174;28;20459;-77
2022/03/30 06:54:49;;;;;;;21.60;13.80;;;;;;;10.13;100.00;153960.41;5035168;28;20677;-77
2022/03/30 06:57:26;;;;;;;22.27;13.77;;;;;;;10.20;100.00;153979.81;5028883;28;20482;-76
2022/03/30 07:00:01;;;;;;;24.50;13.80;;;;;;;10.35;100.00;154017.38;5049400;28;20438;-76
2022/03/30 07:02:37;;;;;;;20.70;13.20;;;;;;;10.23;100.00;153986.28;5020501;28;20443;-75
2022/03/30 07:05:13;;;;;;;22.23;13.20;;;;;;;10.15;100.00;153965.56;5052828;28;20476;-76
2022/03/30 07:10:43;;;;;;;18.57;14.27;;;;;;;10.18;100.00;153974.63;5025763;28;20449;-77
2022/03/30 07:13:21;;;;;;;19.13;14.17;;;;;;;10.11;100.00;153956.44;5021847;28;20836;-77
2022/03/30 07:15:57;;;;;;;21.50;14.50;;;;;;;10.12;100.00;153959.09;5046073;28;20506;-77
2022/03/30 07:18:33;;;;;;;23.40;14.97;;;;;;;10.13;100.00;153960.41;5063884;28;20454;-77
2022/03/30 07:21:08;;;;;;;19.70;13.40;;;;;;;10.12;100.00;153957.72;5045483;28;20435;-77
2022/03/30 07:23:46;;;;;;;24.70;14.47;;;;;;;10.18;100.00;153974.63;5045842;28;20954;-77
2022/03/30 07:26:21;;;;;;;29.30;14.93;;;;;;;10.09;100.00;153949.97;5062165;28;20455;-77
2022/03/30 07:28:57;;;;;;;25.43;16.80;;;;;;;10.22;100.00;153984.97;5036608;28;20929;-77
2022/03/30 07:31:32;;;;;;;28.80;16.43;;;;;;;10.14;100.00;153963.00;5033053;28;20459;-77
2022/03/30 07:34:08;;;;;;;22.27;16.17;;;;;;;9.93;100.00;153908.59;5045786;28;20446;-74
2022/03/30 07:36:44;;;;;;;30.50;17.27;;;;;;;9.83;100.00;153883.97;5048779;28;20439;-77
2022/03/30 07:39:21;;;;;;;26.03;17.10;;;;;;;9.87;100.00;153893.06;5048067;28;20525;-77
2022/03/30 07:41:57;;;;;;;20.13;15.33;;;;;;;9.82;100.00;153881.41;5036881;28;20458;-77
2022/03/30 07:44:32;;;;;;;26.33;18.37;;;;;;;9.84;100.00;153886.59;5031943;28;20785;-77
2022/03/30 07:47:08;;;;;;;18.00;15.50;;;;;;;10.01;100.00;153929.25;5050502;28;20454;-77
2022/03/30 07:49:44;;;;;;;28.10;15.43;;;;;;;9.93;100.00;153908.59;5051366;28;20433;-77
2022/03/30 07:52:21;;;;;;;18.10;14.70;;;;;;;9.94;100.00;153911.16;5054804;28;20454;-77
2022/03/30 07:54:59;;;;;;;21.20;15.10;;;;;;;9.98;100.00;153921.53;5033125;28;20964;-77
2022/03/30 07:57:37;;;;;;;21.73;15.30;;;;;;;9.90;100.00;153900.81;5050930;28;20479;-77
2022/03/30 08:00:15;;;;;;;21.83;15.10;;;;;;;9.91;100.00;153903.38;5046368;28;20442;-77
2022/03/30 08:02:52;;;;;;;24.03;16.40;;;;;;;9.91;100.00;153903.38;5043242;28;20450;-77
2022/03/30 08:05:27;;;;;;;23.73;15.47;;;;;;;9.95;100.00;153915.06;5040981;28;20861;-77
2022/03/30 08:10:53;;;;;;;19.10;13.73;;;;;;;10.12;100.00;153957.72;5052082;28;21298;-76
2022/03/30 08:13:29;;;;;;;20.57;15.50;;;;;;;10.12;100.00;153957.72;5033608;28;20460;-75
2022/03/30 08:16:05;;;;;;;18.37;14.00;;;;;;;10.13;100.00;153960.41;5019507;28;20470;-75
2022/03/30 08:18:40;;;;;;;21.63;12.87;;;;;;;10.07;100.00;153944.81;5053764;28;20434;-75
2022/03/30 08:24:09;;;;;;;21.00;14.00;;;;;;;10.17;100.00;153972.03;5025569;28;20746;-75
2022/03/30 08:26:46;;;;;;;21.50;13.93;;;;;;;10.10;100.00;153953.88;5047328;28;20446;-75
2022/03/30 08:29:22;;;;;;;18.60;13.30;;;;;;;10.10;100.00;153952.56;5033308;28;20443;-75
2022/03/30 08:31:57;;;;;;;23.50;13.57;;;;;;;10.09;100.00;153949.97;5031780;28;20521;-75
2022/03/30 08:34:33;;;;;;;21.90;13.20;;;;;;;10.15;100.00;153965.56;5032217;28;20473;-76
2022/03/30 08:37:09;;;;;;;17.30;12.90;;;;;;;10.15;100.00;153965.56;5029125;28;20440;-75
2022/03/30 08:39:45;;;;;;;20.33;13.13;;;;;;;10.16;100.00;153968.16;5020414;28;20943;-75
2022/03/30 08:42:22;;;;;;;25.17;14.50;;;;;;;10.16;100.00;153968.16;5042609;28;20442;-76
2022/03/30 08:44:59;;;;;;;18.70;12.93;;;;;;;10.13;100.00;153960.41;5030195;28;20438;-75
2022/03/30 08:47:35;;;;;;;18.57;12.20;;;;;;;10.21;100.00;153981.09;5045091;28;20450;-75
2022/03/30 08:50:10;;;;;;;20.80;13.03;;;;;;;10.18;100.00;153973.34;5030521;28;20435;-76
2022/03/30 08:52:49;;;;;;;20.70;13.00;;;;;;;10.20;100.00;153978.50;5045168;28;20450;-76
2022/03/30 08:55:25;;;;;;;25.37;12.07;;;;;;;10.22;100.00;153983.66;5031115;28;20459;-77
2022/03/30 08:58:02;;;;;;;16.93;12.33;;;;;;;10.26;100.00;153995.34;5019912;28;20438;-77
2022/03/30 09:00:38;;;;;;;20.03;12.23;;;;;;;10.28;100.00;153999.22;5032510;28;20439;-76
2022/03/30 09:03:16;;;;;;;20.57;11.40;;;;;;;10.27;100.00;153996.66;5016651;28;20450;-76
2022/03/30 09:05:51;;;;;;;20.40;11.10;;;;;;;10.25;100.00;153991.44;5007986;28;20594;-76
2022/03/30 09:08:27;;;;;;;17.37;11.37;;;;;;;10.22;100.00;153984.97;5029580;28;20434;-76
2022/03/30 09:11:04;;;;;;;18.00;12.87;;;;;;;10.25;100.00;153992.75;5038562;28;20487;-77
2022/03/30 09:13:42;;;;;;;20.83;11.40;;;;;;;10.21;100.00;153981.09;5035299;28;20455;-76
2022/03/30 09:16:17;;;;;;;23.43;12.77;;;;;;;10.24;100.00;153990.19;5031942;28;20474;-76
2022/03/30 09:19:06;;;;;;;17.50;11.57;;;;;;;10.27;100.00;153996.66;5030566;28;20804;-76
2022/03/30 09:21:43;;;;;;;17.17;9.83;;;;;;;10.32;100.00;154009.59;5046830;28;20692;-75
2022/03/30 09:24:20;;;;;;;16.50;10.60;;;;;;;10.34;100.00;154016.06;5052642;28;20798;-76
2022/03/30 09:26:57;;;;;;;22.97;12.57;;;;;;;10.42;100.00;154034.16;5031543;28;20794;-75
2022/03/30 09:29:36;;;;;;;21.13;12.07;;;;;;;10.40;100.00;154030.31;5034514;28;20535;-76
2022/03/30 09:32:11;;;;;;;16.20;10.97;;;;;;;10.41;100.00;154032.88;5020270;28;20455;-76
2022/03/30 09:34:48;;;;;;;16.63;10.40;;;;;;;10.42;100.00;154034.16;5030386;28;20450;-75
2022/03/30 09:37:24;;;;;;;23.93;12.07;;;;;;;10.39;100.00;154027.69;5049386;28;20479;-76
2022/03/30 09:40:10;;;;;;;21.43;11.83;;;;;;;10.39;100.00;154029.00;5017011;28;20834;-76
2022/03/30 09:42:45;;;;;;;16.27;11.33;;;;;;;10.43;100.00;154038.09;5034534;28;20447;-76
2022/03/30 09:45:30;;;;;;;21.43;11.77;;;;;;;10.49;100.00;154053.59;5033997;28;20442;-75
2022/03/30 09:48:11;;;;;;;17.10;11.23;;;;;;;10.52;100.00;154061.34;5031443;28;20438;-75
2022/03/30 09:50:49;;;;;;;19.23;11.90;;;;;;;10.51;100.00;154057.50;5019573;28;20785;-76
2022/03/30 09:53:26;;;;;;;18.73;12.83;;;;;;;10.52;100.00;154061.34;5033284;28;20453;-75
2022/03/30 09:56:04;;;;;;;18.60;11.10;;;;;;;10.60;100.00;154080.78;5031947;28;20473;-76
2022/03/30 09:58:41;;;;;;;18.50;10.37;;;;;;;10.62;100.00;154085.94;5035132;28;20431;-76
2022/03/30 10:01:20;;;;;;;18.90;10.70;;;;;;;10.70;100.00;154106.66;5050565;28;20458;-76
2022/03/30 10:03:59;;;;;;;20.63;11.20;;;;;;;10.68;100.00;154102.78;5036285;28;20804;-76
2022/03/30 10:06:36;;;;;;;22.03;13.27;;;;;;;10.70;100.00;154107.97;5021760;28;20458;-76
2022/03/30 10:09:11;;;;;;;22.83;12.33;;;;;;;10.68;100.00;154102.78;5033001;28;20438;-75
2022/03/30 10:11:48;;;;;;;16.87;11.70;;;;;;;10.71;100.00;154110.56;5026139;28;20538;-76
2022/03/30 10:14:24;;;;;;;18.20;11.40;;;;;;;10.75;100.00;154120.91;5029629;28;20478;-75
2022/03/30 10:17:02;;;;;;;22.57;12.37;;;;;;;10.79;100.00;154131.28;5032283;28;20991;-75
2022/03/30 10:19:40;;;;;;;17.70;10.80;;;;;;;10.72;100.00;154113.13;5026989;28;20936;-75
2022/03/30 10:22:39;;;;;;;17.87;11.67;;;;;;;10.71;100.00;154110.56;5032559;28;20553;-76
2022/03/30 10:25:25;;;;;;;18.77;12.13;;;;;;;10.87;100.00;154152.03;5035216;28;20443;-76
2022/03/30 10:28:14;;;;;;;19.20;12.70;;;;;;;10.98;100.00;154180.53;5015831;28;20467;-76
2022/03/30 10:30:53;;;;;;;18.13;11.73;;;;;;;11.10;100.00;154208.97;5032080;28;20447;-76
2022/03/30 10:33:32;;;;;;;19.13;12.83;;;;;;;11.13;100.00;154216.75;5012407;28;20451;-76
2022/03/30 10:36:22;;;;;;;16.20;10.77;;;;;;;11.12;100.00;154214.19;5033111;28;20478;-78
2022/03/30 10:39:08;;;;;;;16.60;11.70;;;;;;;11.16;100.00;154224.53;5032438;28;20557;-76
2022/03/30 10:41:51;;;;;;;16.57;12.93;;;;;;;11.26;100.00;154250.44;5032476;28;20459;-75
2022/03/30 10:44:35;;;;;;;22.87;12.63;;;;;;;11.25;100.00;154247.88;5031068;28;20450;-76
2022/03/30 10:47:13;;;;;;;16.17;13.13;;;;;;;11.39;100.00;154284.13;5018528;28;21254;-75
2022/03/30 10:49:51;;;;;;;16.87;11.57;;;;;;;11.36;100.00;154276.34;5026292;28;20443;-76
2022/03/30 10:52:37;;;;;;;15.40;11.33;;;;;;;11.35;100.00;154273.78;5035507;28;20462;-76
2022/03/30 10:55:36;;;;;;;19.13;12.57;;;;;;;11.38;100.00;154281.56;5030493;28;20463;-76
2022/03/30 10:58:16;;;;;;;19.43;11.67;;;;;;;11.43;100.00;154295.81;5028744;28;20450;-75
2022/03/30 11:01:13;;;;;;;20.97;13.07;;;;;;;11.46;100.00;154302.28;5031855;28;20458;-76
2022/03/30 11:03:56;;;;;;;12.57;10.50;;;;;;;11.46;100.00;154303.53;5030834;28;20526;-76
2022/03/30 11:06:35;;;;;;;16.63;11.50;;;;;;;11.56;100.00;154329.50;5032328;28;20482;-76
2022/03/30 11:09:12;;;;;;;16.47;12.73;;;;;;;11.67;100.00;154356.72;5032733;28;20972;-75
2022/03/30 11:11:57;;;;;;;17.00;12.00;;;;;;;11.68;100.00;154359.28;5029255;28;20483;-75
2022/03/30 11:14:36;;;;;;;19.03;12.70;;;;;;;11.71;100.00;154367.09;5032131;28;20812;-75
2022/03/30 11:17:15;;;;;;;22.33;12.53;;;;;;;11.76;100.00;154378.75;5029040;28;20467;-74
2022/03/30 11:20:08;;;;;;;21.43;11.90;;;;;;;11.71;100.00;154365.81;5050074;28;20452;-75
2022/03/30 11:22:45;;;;;;;18.17;11.40;;;;;;;11.63;100.00;154347.63;5033609;28;20851;-75
2022/03/30 11:25:22;;;;;;;13.10;10.63;;;;;;;11.63;100.00;154346.31;5032962;28;20479;-75
2022/03/30 11:28:14;;;;;;;15.57;10.50;;;;;;;11.67;100.00;154355.41;5033008;28;20542;-75
2022/03/30 11:30:52;;;;;;;14.60;11.63;;;;;;;11.76;100.00;154380.06;5014575;28;20451;-75
2022/03/30 11:33:32;;;;;;;16.50;11.00;;;;;;;11.79;100.00;154387.84;5014923;28;20447;-75
2022/03/30 11:36:07;;;;;;;18.40;11.50;;;;;;;11.79;100.00;154387.84;5034684;28;20475;-75
2022/03/30 11:38:45;;;;;;;15.53;10.80;;;;;;;11.83;100.00;154398.22;5018466;28;20451;-74
2022/03/30 11:41:21;;;;;;;14.43;10.30;;;;;;;11.79;100.00;154387.84;5032340;28;20498;-75
2022/03/30 11:46:53;;;;;;;14.60;10.10;;;;;;;11.75;99.04;154376.19;5019987;28;20513;-75
2022/03/30 11:49:30;;;;;;;18.43;10.90;;;;;;;11.80;100.00;154390.44;5013244;28;20447;-75
2022/03/30 11:52:15;;;;;;;19.10;14.50;;;;;;;11.57;100.00;154332.06;5047897;28;20448;-75
2022/03/30 11:54:52;;;;;;;25.30;16.27;;;;;;;11.32;100.00;154266.00;5027814;28;20432;-75
2022/03/30 11:57:28;;;;;;;26.73;16.10;;;;;;;11.24;100.00;154245.25;5021377;28;20472;-75
2022/03/30 12:00:08;;;;;;;21.50;17.90;;;;;;;11.05;100.00;154196.03;5025001;28;20827;-75
2022/03/30 12:02:47;;;;;;;28.10;15.17;;;;;;;10.88;100.00;154154.56;5048612;28;20463;-75
2022/03/30 12:05:25;;;;;;;27.20;17.87;;;;;;;10.97;100.00;154177.91;5018479;28;20976;-74
2022/03/30 12:08:02;;;;;;;27.57;13.97;;;;;;;11.04;100.00;154193.47;5032396;28;20507;-75